createdAt,value
2022-09-17T09:34:03.197Z,14.30
2022-09-17T09:36:32.888Z,14.80
2022-09-17T09:39:24.828Z,14.90
2022-09-17T09:42:16.842Z,14.90
2022-09-17T09:44:43.521Z,14.90
2022-09-17T09:47:22.168Z,14.70
2022-09-17T09:50:11.968Z,14.60
2022-09-17T09:52:51.446Z,14.40
2022-09-17T09:55:49.205Z,14.30
2022-09-17T09:58:35.208Z,14.20
2022-09-17T10:01:02.892Z,14.40
2022-09-17T10:03:32.729Z,14.50
2022-09-17T10:06:05.692Z,14.40
2022-09-17T10:08:37.514Z,14.70
2022-09-17T10:11:09.157Z,15.10
2022-09-17T10:13:37.321Z,15.30
2022-09-17T10:16:24.281Z,15.30
2022-09-17T10:19:07.417Z,15.40
2022-09-17T10:21:42.392Z,15.60
2022-09-17T10:24:27.755Z,15.50
2022-09-17T10:27:03.481Z,15.50
2022-09-17T10:29:30.909Z,15.50
2022-09-17T10:31:58.873Z,15.70
2022-09-17T10:34:30.946Z,15.80
2022-09-17T10:36:58.476Z,15.80
2022-09-17T10:39:44.149Z,15.60
2022-09-17T10:42:18.540Z,15.80
2022-09-17T10:44:56.567Z,15.90
2022-09-17T10:47:29.064Z,15.70
2022-09-17T10:50:18.078Z,15.40
2022-09-17T10:52:55.533Z,15.40
2022-09-17T10:55:45.243Z,15.50
2022-09-17T10:58:30.353Z,15.60
2022-09-17T11:01:25.322Z,15.50
2022-09-17T11:04:41.749Z,15.50
2022-09-17T11:07:29.519Z,15.80
2022-09-17T11:10:25.110Z,15.90
2022-09-17T11:13:31.970Z,15.80
2022-09-17T11:16:25.621Z,15.70
2022-09-17T11:19:11.803Z,15.60
2022-09-17T11:21:38.890Z,15.70
2022-09-17T11:24:20.645Z,15.70
2022-09-17T11:27:16.838Z,15.20
2022-09-17T11:30:15.488Z,14.60
2022-09-17T11:32:54.659Z,14.20
2022-09-17T11:35:30.948Z,14.20
2022-09-17T11:38:19.464Z,14.60
2022-09-17T11:41:02.729Z,14.80
2022-09-17T11:43:44.799Z,15.00
2022-09-17T11:46:20.442Z,15.00
2022-09-17T11:48:59.461Z,15.10
2022-09-17T11:51:40.678Z,15.30
2022-09-17T11:54:19.636Z,15.40
2022-09-17T11:56:52.983Z,15.30
2022-09-17T11:59:38.311Z,15.40
2022-09-17T12:02:10.790Z,15.60
2022-09-17T12:04:54.084Z,15.70
2022-09-17T12:07:54.645Z,15.70
2022-09-17T12:10:54.552Z,15.70
2022-09-17T12:13:40.559Z,15.80
2022-09-17T12:16:13.339Z,15.80
2022-09-17T12:18:46.189Z,15.70
2022-09-17T12:21:19.520Z,15.60
2022-09-17T12:24:10.811Z,15.40
2022-09-17T12:27:13.814Z,15.40
2022-09-17T12:30:16.459Z,15.40
2022-09-17T12:33:17.274Z,15.40
2022-09-17T12:36:08.447Z,15.10
2022-09-17T12:38:53.715Z,14.80
2022-09-17T12:41:56.893Z,14.40
2022-09-17T12:44:45.715Z,14.10
2022-09-17T12:47:37.234Z,13.80
2022-09-17T12:50:27.980Z,13.70
2022-09-17T12:53:20.723Z,13.60
2022-09-17T12:56:03.307Z,13.60
2022-09-17T12:59:08.455Z,13.60
2022-09-17T13:01:57.985Z,13.60
2022-09-17T13:05:01.077Z,13.80
2022-09-17T13:07:57.326Z,14.10
2022-09-17T13:10:35.554Z,14.30
2022-09-17T13:13:34.436Z,14.40
2022-09-17T13:16:20.867Z,14.30
2022-09-17T13:19:05.561Z,14.20
2022-09-17T13:21:51.466Z,13.90
2022-09-17T13:24:28.601Z,13.70
2022-09-17T13:26:56.505Z,13.30
2022-09-17T13:29:45.277Z,13.20
2022-09-17T13:32:37.174Z,13.20
2022-09-17T13:35:09.734Z,13.40
2022-09-17T13:37:40.296Z,13.50
2022-09-17T13:40:27.876Z,13.50
2022-09-17T13:42:59.217Z,13.60
2022-09-17T13:45:26.756Z,13.70
2022-09-17T13:48:00.322Z,13.70
2022-09-17T13:50:57.016Z,13.80
2022-09-17T13:53:27.906Z,13.80
2022-09-17T13:55:55.939Z,13.90
2022-09-17T13:58:31.716Z,13.90
2022-09-17T14:01:12.994Z,14.00
2022-09-17T14:03:45.614Z,13.90
2022-09-17T14:06:14.604Z,13.90
2022-09-17T14:08:54.485Z,14.10
2022-09-17T14:11:28.276Z,14.10
2022-09-17T14:14:15.513Z,14.20
2022-09-17T14:16:48.275Z,14.20
2022-09-17T14:19:36.888Z,14.20
2022-09-17T14:22:15.958Z,14.30
2022-09-17T14:24:42.586Z,14.50
2022-09-17T14:27:43.261Z,14.70
2022-09-17T14:30:18.089Z,14.80
2022-09-17T14:32:53.754Z,14.80
2022-09-17T14:35:43.943Z,14.80
2022-09-17T14:38:35.064Z,14.80
2022-09-17T14:41:18.723Z,14.50
2022-09-17T14:43:48.547Z,13.80
2022-09-17T14:46:30.889Z,12.80
2022-09-17T14:49:22.826Z,12.40
2022-09-17T14:51:54.131Z,12.00
2022-09-17T14:54:20.769Z,11.90
2022-09-17T14:56:47.487Z,11.90
2022-09-17T14:59:31.213Z,11.80
2022-09-17T15:01:58.168Z,12.00
2022-09-17T15:04:26.979Z,12.10
2022-09-17T15:07:06.310Z,12.30
2022-09-17T15:09:33.054Z,12.50
2022-09-17T15:12:00.751Z,12.60
2022-09-17T15:14:30.495Z,12.60
2022-09-17T15:17:00.013Z,12.40
2022-09-17T15:19:48.045Z,12.40
2022-09-17T15:22:26.666Z,12.40
2022-09-17T15:24:58.325Z,12.70
2022-09-17T15:27:37.999Z,12.80
2022-09-17T15:30:21.005Z,12.80
2022-09-17T15:32:52.103Z,12.90
2022-09-17T15:35:27.995Z,13.10
2022-09-17T15:38:21.120Z,13.20
2022-09-17T15:40:43.631Z,13.20
2022-09-17T15:43:27.334Z,13.20
2022-09-17T15:45:55.373Z,13.30
2022-09-17T15:52:41.953Z,13.30
2022-09-17T16:00:01.270Z,13.30
2022-09-17T16:06:16.733Z,13.20
2022-09-17T16:09:54.621Z,13.20
2022-09-17T16:12:39.950Z,13.20
2022-09-17T16:15:30.375Z,13.30
2022-09-17T16:18:05.023Z,13.30
2022-09-17T16:20:32.514Z,13.40
2022-09-17T16:25:53.976Z,13.30
2022-09-17T16:28:44.512Z,13.40
2022-09-17T16:31:17.294Z,13.30
2022-09-17T16:34:01.314Z,13.30
2022-09-17T16:36:45.518Z,13.30
2022-09-17T16:39:29.355Z,13.20
2022-09-17T16:42:55.997Z,13.20
2022-09-17T16:45:42.894Z,13.20
2022-09-17T16:48:32.088Z,13.20
2022-09-17T16:51:38.641Z,13.30
2022-09-17T16:54:31.656Z,13.30
2022-09-17T16:57:30.035Z,13.30
2022-09-17T17:00:39.297Z,13.20
2022-09-17T17:03:30.178Z,13.10
2022-09-17T17:06:01.784Z,13.10
2022-09-17T17:08:57.374Z,13.10
2022-09-17T17:11:49.004Z,13.10
2022-09-17T17:14:52.406Z,12.90
2022-09-17T17:17:29.605Z,12.80
2022-09-17T17:20:25.611Z,12.80
2022-09-17T17:23:23.632Z,12.70
2022-09-17T17:26:09.949Z,12.80
2022-09-17T17:28:48.531Z,12.80
2022-09-17T17:31:40.619Z,12.80
2022-09-17T17:34:15.242Z,12.80
2022-09-17T17:37:20.769Z,12.60
2022-09-17T17:40:25.427Z,12.70
2022-09-17T17:46:19.047Z,12.60
2022-09-17T17:49:03.563Z,12.60
2022-09-17T17:51:41.497Z,12.60
2022-09-17T17:54:35.328Z,12.60
2022-09-17T17:57:27.442Z,12.50
2022-09-17T18:03:15.462Z,12.40
2022-09-17T18:06:03.709Z,12.30
2022-09-17T18:08:39.089Z,12.30
2022-09-17T18:11:08.210Z,12.30
2022-09-17T18:13:36.838Z,12.30
2022-09-17T18:16:05.265Z,12.30
2022-09-17T18:18:42.130Z,12.20
2022-09-17T18:21:20.771Z,12.10
2022-09-17T18:23:49.030Z,12.10
2022-09-17T18:26:18.104Z,12.10
2022-09-17T18:28:45.415Z,12.10
2022-09-17T18:31:32.915Z,12.20
2022-09-17T18:34:20.596Z,12.10
2022-09-17T18:36:50.995Z,12.10
2022-09-17T18:39:57.528Z,12.20
2022-09-17T18:42:05.228Z,12.20
2022-09-17T18:44:31.992Z,12.20
2022-09-17T18:46:58.785Z,12.20
2022-09-17T18:49:25.603Z,12.20
2022-09-17T18:51:52.363Z,12.10
2022-09-17T18:54:19.094Z,12.10
2022-09-17T18:56:45.853Z,12.00
2022-09-17T18:59:12.822Z,12.00
2022-09-17T19:01:39.802Z,12.10
2022-09-17T19:04:09.994Z,12.10
2022-09-17T19:06:36.808Z,12.00
2022-09-17T19:09:05.331Z,12.00
2022-09-17T19:11:32.050Z,11.90
2022-09-17T19:13:58.945Z,11.90
2022-09-17T19:16:25.798Z,12.00
2022-09-17T19:18:52.688Z,11.90
2022-09-17T19:21:23.245Z,12.00
2022-09-17T19:23:51.921Z,12.10
2022-09-17T19:26:22.195Z,12.10
2022-09-17T19:28:52.535Z,12.00
2022-09-17T19:31:19.289Z,11.90
2022-09-17T19:33:46.732Z,12.00
2022-09-17T19:36:15.762Z,12.00
2022-09-17T19:38:43.257Z,11.90
2022-09-17T19:41:13.066Z,11.90
2022-09-17T19:43:40.344Z,11.90
2022-09-17T19:46:10.147Z,11.80
2022-09-17T19:48:37.079Z,11.80
2022-09-17T19:51:05.031Z,11.90
2022-09-17T19:53:32.890Z,11.90
2022-09-17T19:56:02.807Z,12.00
2022-09-17T19:58:29.528Z,12.00
2022-09-17T20:00:59.797Z,12.00
2022-09-17T20:03:27.095Z,12.10
2022-09-17T20:06:06.833Z,12.10
2022-09-17T20:08:37.987Z,12.20
2022-09-17T20:11:09.757Z,12.20
2022-09-17T20:13:37.326Z,12.00
2022-09-17T20:16:14.523Z,12.00
2022-09-17T20:18:41.704Z,11.90
2022-09-17T20:21:12.560Z,11.80
2022-09-17T20:23:39.448Z,11.90
2022-09-17T20:26:06.834Z,12.00
2022-09-17T20:28:34.402Z,12.00
2022-09-17T20:31:05.366Z,12.00
2022-09-17T20:33:32.743Z,12.10
2022-09-17T20:36:01.204Z,12.10
2022-09-17T20:41:16.052Z,12.10
2022-09-17T20:43:45.403Z,12.10
2022-09-17T20:46:12.725Z,12.10
2022-09-17T20:48:40.456Z,12.10
2022-09-17T20:51:10.677Z,12.10
2022-09-17T20:53:38.354Z,12.20
2022-09-17T20:56:10.888Z,12.10
2022-09-17T20:58:45.239Z,12.00
2022-09-17T21:01:20.590Z,12.00
2022-09-17T21:03:50.582Z,12.00
2022-09-17T21:06:18.375Z,11.90
2022-09-17T21:08:45.663Z,12.00
2022-09-17T21:11:13.277Z,12.00
2022-09-17T21:13:40.600Z,12.00
2022-09-17T21:16:08.225Z,12.00
2022-09-17T21:18:39.434Z,12.10
2022-09-17T21:21:09.662Z,12.10
2022-09-17T21:23:37.789Z,12.00
2022-09-17T21:26:14.606Z,12.10
2022-09-17T21:28:42.771Z,12.10
2022-09-17T21:31:17.170Z,12.20
2022-09-17T21:33:45.058Z,12.10
2022-09-17T21:36:23.333Z,12.10
2022-09-17T21:38:51.872Z,12.20
2022-09-17T21:41:19.615Z,12.20
2022-09-17T21:43:46.776Z,12.20
2022-09-17T21:46:16.441Z,12.20
2022-09-17T21:53:15.851Z,12.20
2022-09-17T22:03:46.968Z,11.90
2022-09-17T22:19:36.215Z,11.50
2022-09-17T22:43:16.254Z,11.30
2022-09-17T22:47:29.445Z,11.20
2022-09-17T22:51:20.507Z,11.30
2022-09-17T23:01:54.584Z,11.30
2022-09-17T23:09:02.372Z,11.30
2022-09-17T23:12:20.672Z,11.40
2022-09-17T23:21:59.315Z,11.30
2022-09-17T23:25:21.646Z,11.30
2022-09-17T23:28:11.733Z,11.30
2022-09-17T23:31:22.360Z,11.30
2022-09-17T23:37:48.771Z,11.20
2022-09-17T23:40:37.987Z,11.40
2022-09-17T23:43:13.798Z,11.30
2022-09-17T23:46:08.524Z,11.30
2022-09-17T23:48:58.021Z,11.30
2022-09-17T23:51:56.906Z,11.30
2022-09-17T23:58:03.351Z,11.30
